createdAt,value
2022-12-15T00:02:35.488Z,2.50
2022-12-15T00:05:21.733Z,2.50
2022-12-15T00:08:07.176Z,2.50
2022-12-15T00:10:53.027Z,2.50
2022-12-15T00:13:38.555Z,2.50
2022-12-15T00:16:24.342Z,2.60
2022-12-15T00:19:09.531Z,2.60
2022-12-15T00:21:55.292Z,2.50
2022-12-15T00:24:40.897Z,2.60
2022-12-15T00:27:26.211Z,2.60
2022-12-15T00:30:11.556Z,2.60
2022-12-15T00:32:57.206Z,2.60
2022-12-15T00:35:42.870Z,2.60
2022-12-15T00:38:30.480Z,2.60
2022-12-15T00:40:59.923Z,2.60
2022-12-15T00:43:28.977Z,2.60
2022-12-15T00:46:15.031Z,2.70
2022-12-15T00:48:42.494Z,2.70
2022-12-15T00:51:09.625Z,2.70
2022-12-15T00:53:55.044Z,2.70
2022-12-15T00:56:40.627Z,2.70
2022-12-15T00:59:25.949Z,2.70
2022-12-15T01:02:11.274Z,2.70
2022-12-15T01:04:56.701Z,2.70
2022-12-15T01:07:42.815Z,2.70
2022-12-15T01:10:28.315Z,2.70
2022-12-15T01:13:13.744Z,2.70
2022-12-15T01:15:58.988Z,2.80
2022-12-15T01:18:44.336Z,2.80
2022-12-15T01:21:16.642Z,2.80
2022-12-15T01:23:43.455Z,2.80
2022-12-15T01:26:10.319Z,2.80
2022-12-15T01:28:37.207Z,2.80
2022-12-15T01:31:11.658Z,2.80
2022-12-15T01:33:39.809Z,2.80
2022-12-15T01:36:07.244Z,2.80
2022-12-15T01:38:34.333Z,2.80
2022-12-15T01:41:08.016Z,2.80
2022-12-15T01:43:38.177Z,2.80
2022-12-15T01:46:08.033Z,2.80
2022-12-15T01:48:40.857Z,2.80
2022-12-15T01:51:16.050Z,2.80
2022-12-15T01:54:14.804Z,2.80
2022-12-15T01:56:46.670Z,2.80
2022-12-15T01:59:19.628Z,2.80
2022-12-15T02:01:49.737Z,2.80
2022-12-15T02:04:19.578Z,2.80
2022-12-15T02:06:46.414Z,2.80
2022-12-15T02:09:13.879Z,2.80
2022-12-15T02:12:14.636Z,2.90
2022-12-15T02:15:00.008Z,2.80
2022-12-15T02:17:39.051Z,2.80
2022-12-15T02:20:33.062Z,2.80
2022-12-15T02:23:27.161Z,2.90
2022-12-15T02:26:09.063Z,2.80
2022-12-15T02:29:08.915Z,2.90
2022-12-15T02:31:57.535Z,2.80
2022-12-15T02:34:44.771Z,2.80
2022-12-15T02:37:17.943Z,2.80
2022-12-15T02:39:45.134Z,2.80
2022-12-15T02:42:12.239Z,2.80
2022-12-15T02:44:41.061Z,2.80
2022-12-15T02:47:21.790Z,2.80
2022-12-15T02:50:03.482Z,2.80
2022-12-15T02:52:53.961Z,2.80
2022-12-15T02:55:33.096Z,2.80
2022-12-15T02:58:08.294Z,2.80
2022-12-15T03:00:41.206Z,2.70
2022-12-15T03:03:09.272Z,2.70
2022-12-15T03:05:36.441Z,2.70
2022-12-15T03:08:03.420Z,2.70
2022-12-15T03:10:30.667Z,2.70
2022-12-15T03:12:58.899Z,2.70
2022-12-15T03:15:28.063Z,2.60
2022-12-15T03:17:58.765Z,2.60
2022-12-15T03:20:25.538Z,2.60
2022-12-15T03:22:52.472Z,2.60
2022-12-15T03:25:19.310Z,2.60
2022-12-15T03:27:47.422Z,2.60
2022-12-15T03:30:14.611Z,2.60
2022-12-15T03:32:41.485Z,2.50
2022-12-15T03:35:08.646Z,2.50
2022-12-15T03:37:35.600Z,2.50
2022-12-15T03:40:02.462Z,2.50
2022-12-15T03:42:48.013Z,2.50
2022-12-15T03:45:18.081Z,2.50
2022-12-15T03:47:45.914Z,2.50
2022-12-15T03:50:14.877Z,2.50
2022-12-15T03:52:42.030Z,2.40
2022-12-15T03:55:09.973Z,2.40
2022-12-15T03:57:36.965Z,2.40
2022-12-15T04:00:06.112Z,2.40
2022-12-15T04:02:40.047Z,2.40
2022-12-15T04:05:08.118Z,2.40
2022-12-15T04:07:34.932Z,2.40
2022-12-15T04:10:01.843Z,2.40
2022-12-15T04:12:28.785Z,2.40
2022-12-15T04:14:55.617Z,2.30
2022-12-15T04:17:22.450Z,2.30
2022-12-15T04:20:07.962Z,2.30
2022-12-15T04:22:42.237Z,2.30
2022-12-15T04:25:40.252Z,2.30
2022-12-15T04:28:27.128Z,2.30
2022-12-15T04:31:18.105Z,2.30
2022-12-15T04:34:08.546Z,2.20
2022-12-15T04:36:55.614Z,2.20
2022-12-15T04:39:41.647Z,2.20
2022-12-15T04:42:27.365Z,2.20
2022-12-15T04:45:20.889Z,2.20
2022-12-15T04:48:07.020Z,2.20
2022-12-15T04:50:52.950Z,2.10
2022-12-15T04:53:39.401Z,2.10
2022-12-15T04:56:30.376Z,2.10
2022-12-15T04:59:16.284Z,2.10
2022-12-15T05:02:01.813Z,2.00
2022-12-15T05:04:47.570Z,2.00
2022-12-15T05:07:33.000Z,2.00
2022-12-15T05:10:18.707Z,2.00
2022-12-15T05:13:04.217Z,2.00
2022-12-15T05:15:51.610Z,2.00
2022-12-15T05:18:37.552Z,2.00
2022-12-15T05:21:23.004Z,2.00
2022-12-15T05:24:08.280Z,2.00
2022-12-15T05:26:53.863Z,2.00
2022-12-15T05:29:40.061Z,2.00
2022-12-15T05:32:08.189Z,2.00
2022-12-15T05:34:36.276Z,2.00
2022-12-15T05:37:04.914Z,1.90
2022-12-15T05:39:31.832Z,1.90
2022-12-15T05:41:58.676Z,1.90
2022-12-15T05:44:25.945Z,1.90
2022-12-15T05:46:53.129Z,1.90
2022-12-15T05:49:20.641Z,1.80
2022-12-15T05:51:48.191Z,1.80
2022-12-15T05:54:18.604Z,1.80
2022-12-15T05:56:46.245Z,1.70
2022-12-15T05:59:13.698Z,1.80
2022-12-15T06:01:40.617Z,1.70
2022-12-15T06:04:07.647Z,1.70
2022-12-15T06:06:34.846Z,1.70
2022-12-15T06:09:01.759Z,1.70
2022-12-15T06:11:28.555Z,1.70
2022-12-15T06:13:56.405Z,1.70
2022-12-15T06:16:25.375Z,1.70
2022-12-15T06:18:58.777Z,1.70
2022-12-15T06:21:43.968Z,1.70
2022-12-15T06:24:11.145Z,1.70
2022-12-15T06:26:39.742Z,1.70
2022-12-15T06:29:09.971Z,1.70
2022-12-15T06:31:38.001Z,1.70
2022-12-15T06:34:07.773Z,1.70
2022-12-15T06:36:35.059Z,1.70
2022-12-15T06:39:04.351Z,1.60
2022-12-15T06:41:31.678Z,1.60
2022-12-15T06:43:59.434Z,1.60
2022-12-15T06:46:28.126Z,1.60
2022-12-15T06:48:55.187Z,1.60
2022-12-15T06:51:22.445Z,1.60
2022-12-15T06:53:49.949Z,1.60
2022-12-15T06:56:20.292Z,1.60
2022-12-15T06:58:48.581Z,1.50
2022-12-15T07:01:16.225Z,1.50
2022-12-15T07:03:43.246Z,1.50
2022-12-15T07:06:12.216Z,1.50
2022-12-15T07:08:41.688Z,1.50
2022-12-15T07:11:12.012Z,1.50
2022-12-15T07:13:39.661Z,1.50
2022-12-15T07:16:08.123Z,1.50
2022-12-15T07:18:35.058Z,1.40
2022-12-15T07:21:07.223Z,1.40
2022-12-15T07:23:53.613Z,1.40
2022-12-15T07:26:22.163Z,1.40
2022-12-15T07:28:49.304Z,1.40
2022-12-15T07:31:16.339Z,1.30
2022-12-15T07:33:43.473Z,1.30
2022-12-15T07:36:11.049Z,1.30
2022-12-15T07:38:38.146Z,1.30
2022-12-15T07:41:07.254Z,1.30
2022-12-15T07:43:35.235Z,1.30
2022-12-15T07:46:03.652Z,1.30
2022-12-15T07:48:30.889Z,1.30
2022-12-15T07:51:04.895Z,1.30
2022-12-15T07:53:35.488Z,1.20
2022-12-15T07:56:08.888Z,1.20
2022-12-15T07:58:36.679Z,1.20
2022-12-15T08:01:05.822Z,1.20
2022-12-15T08:03:33.657Z,1.20
2022-12-15T08:06:12.421Z,1.20
2022-12-15T08:08:40.446Z,1.20
2022-12-15T08:11:09.130Z,1.20
2022-12-15T08:16:23.855Z,1.10
2022-12-15T08:18:50.743Z,1.10
2022-12-15T08:21:17.889Z,1.10
2022-12-15T08:23:45.261Z,1.10
2022-12-15T08:26:15.552Z,1.10
2022-12-15T08:28:44.108Z,1.10
2022-12-15T08:31:16.865Z,1.10
2022-12-15T08:33:44.982Z,1.10
2022-12-15T08:36:13.907Z,1.10
2022-12-15T08:38:42.130Z,1.10
2022-12-15T08:41:16.882Z,1.20
2022-12-15T08:43:48.635Z,1.20
2022-12-15T08:46:28.099Z,1.20
2022-12-15T08:48:55.718Z,1.20
2022-12-15T08:51:23.883Z,1.20
2022-12-15T08:53:50.945Z,1.30
2022-12-15T08:56:20.266Z,1.30
2022-12-15T08:58:49.103Z,1.30
2022-12-15T09:01:23.900Z,1.30
2022-12-15T09:03:53.750Z,1.30
2022-12-15T09:06:32.899Z,1.30
2022-12-15T09:09:02.020Z,1.30
2022-12-15T09:11:29.956Z,1.30
2022-12-15T09:13:57.360Z,1.30
2022-12-15T09:16:24.806Z,1.40
2022-12-15T09:18:54.093Z,1.40
2022-12-15T09:21:23.213Z,1.40
2022-12-15T09:23:52.348Z,1.40
2022-12-15T09:26:21.324Z,1.50
2022-12-15T09:28:50.163Z,1.50
2022-12-15T09:31:22.940Z,1.50
2022-12-15T09:33:52.048Z,1.60
2022-12-15T09:36:19.568Z,1.60
2022-12-15T09:38:46.448Z,1.60
2022-12-15T09:41:13.224Z,1.60
2022-12-15T09:43:48.339Z,1.60
2022-12-15T09:46:20.251Z,1.70
2022-12-15T09:48:49.738Z,1.70
2022-12-15T09:51:18.535Z,1.70
2022-12-15T09:53:54.814Z,1.70
2022-12-15T09:56:32.628Z,1.80
2022-12-15T09:59:10.033Z,1.80
2022-12-15T10:01:56.254Z,1.90
2022-12-15T10:04:38.392Z,1.90
2022-12-15T10:07:28.211Z,2.00
2022-12-15T10:09:55.509Z,2.10
2022-12-15T10:12:30.541Z,2.10
2022-12-15T10:15:25.809Z,2.10
2022-12-15T10:18:17.458Z,2.20
2022-12-15T10:20:44.342Z,2.20
2022-12-15T10:23:17.754Z,2.30
2022-12-15T10:25:58.136Z,2.30
2022-12-15T10:28:54.025Z,2.30
2022-12-15T10:31:42.065Z,2.20
2022-12-15T10:34:23.036Z,2.30
2022-12-15T10:36:51.937Z,2.30
2022-12-15T10:39:21.741Z,2.30
2022-12-15T10:42:11.783Z,2.30
2022-12-15T10:44:41.529Z,2.30
2022-12-15T10:47:20.490Z,2.30
2022-12-15T10:49:48.534Z,2.30
2022-12-15T10:52:34.559Z,2.40
2022-12-15T10:55:01.612Z,2.40
2022-12-15T10:57:32.164Z,2.40
2022-12-15T11:00:19.432Z,2.40
2022-12-15T11:02:46.482Z,2.40
2022-12-15T11:05:17.682Z,2.40
2022-12-15T11:08:13.100Z,2.40
2022-12-15T11:11:16.286Z,2.40
2022-12-15T11:14:11.330Z,2.30
2022-12-15T11:16:46.608Z,2.30
2022-12-15T11:19:34.256Z,2.30
2022-12-15T11:22:30.137Z,2.30
2022-12-15T11:25:22.946Z,2.30
2022-12-15T11:27:54.061Z,2.20
2022-12-15T11:30:22.970Z,2.30
2022-12-15T11:32:55.716Z,2.20
2022-12-15T11:35:30.076Z,2.20
2022-12-15T11:38:06.109Z,2.20
2022-12-15T11:40:41.709Z,2.20
2022-12-15T11:43:30.172Z,2.20
2022-12-15T11:46:41.010Z,2.20
2022-12-15T11:49:26.776Z,2.20
2022-12-15T11:52:06.341Z,2.20
2022-12-15T11:54:55.599Z,2.20
2022-12-15T11:57:41.120Z,2.30
2022-12-15T12:00:15.820Z,2.20
2022-12-15T12:02:57.105Z,2.30
2022-12-15T12:05:40.040Z,2.30
2022-12-15T12:08:52.413Z,2.30
2022-12-15T12:11:25.461Z,2.30
2022-12-15T12:14:37.527Z,2.30
2022-12-15T12:17:48.269Z,2.30
2022-12-15T12:20:24.882Z,2.30
2022-12-15T12:23:08.758Z,2.40
2022-12-15T12:25:43.314Z,2.40
2022-12-15T12:28:22.523Z,2.40
2022-12-15T12:30:50.401Z,2.40
2022-12-15T12:33:29.937Z,2.40
2022-12-15T12:36:12.658Z,2.40
2022-12-15T12:38:50.764Z,2.40
2022-12-15T12:41:26.656Z,2.40
2022-12-15T12:43:55.891Z,2.40
2022-12-15T12:46:48.795Z,2.40
2022-12-15T12:49:29.935Z,2.30
2022-12-15T12:51:59.603Z,2.30
2022-12-15T12:54:35.883Z,2.30
2022-12-15T12:57:12.063Z,2.30
2022-12-15T12:59:57.264Z,2.30
2022-12-15T13:02:25.782Z,2.20
2022-12-15T13:05:06.498Z,2.30
2022-12-15T13:07:40.340Z,2.20
2022-12-15T13:10:20.317Z,2.20
2022-12-15T13:13:15.416Z,2.20
2022-12-15T13:15:45.009Z,2.20
2022-12-15T13:18:24.432Z,2.20
2022-12-15T13:20:56.217Z,2.20
2022-12-15T13:23:26.357Z,2.20
2022-12-15T13:25:55.946Z,2.20
2022-12-15T13:28:42.755Z,2.20
2022-12-15T13:31:20.173Z,2.20
2022-12-15T13:33:52.949Z,2.20
2022-12-15T13:36:38.454Z,2.30
2022-12-15T13:39:17.425Z,2.30
2022-12-15T13:44:57.301Z,2.20
2022-12-15T13:47:27.991Z,2.30
2022-12-15T13:50:17.896Z,2.30
2022-12-15T13:53:18.436Z,2.30
2022-12-15T13:55:51.046Z,2.30
2022-12-15T13:58:19.367Z,2.30
2022-12-15T14:00:57.537Z,2.30
2022-12-15T14:03:24.909Z,2.30
2022-12-15T14:05:58.724Z,2.30
2022-12-15T14:08:27.144Z,2.30
2022-12-15T14:10:57.317Z,2.30
2022-12-15T14:13:35.840Z,2.30
2022-12-15T14:16:16.694Z,2.30
2022-12-15T14:18:44.910Z,2.30
2022-12-15T14:21:24.716Z,2.30
2022-12-15T14:24:28.381Z,2.30
2022-12-15T14:26:38.424Z,2.30
2022-12-15T14:29:06.288Z,2.30
2022-12-15T14:31:33.641Z,2.30
2022-12-15T14:34:08.721Z,2.30
2022-12-15T14:36:36.657Z,2.30
2022-12-15T14:39:06.990Z,2.30
2022-12-15T14:41:39.491Z,2.30
2022-12-15T14:44:38.052Z,2.30
2022-12-15T14:47:15.811Z,2.30
2022-12-15T14:49:45.402Z,2.30
2022-12-15T14:52:37.616Z,2.30
2022-12-15T14:55:38.519Z,2.30
2022-12-15T14:58:35.896Z,2.30
2022-12-15T15:01:04.205Z,2.30
2022-12-15T15:03:39.790Z,2.30
2022-12-15T15:06:12.799Z,2.30
2022-12-15T15:09:22.855Z,2.30
2022-12-15T15:11:53.703Z,2.30
2022-12-15T15:14:32.653Z,2.30
2022-12-15T15:17:07.430Z,2.30
2022-12-15T15:19:39.851Z,2.30
2022-12-15T15:22:24.487Z,2.20
2022-12-15T15:24:52.540Z,2.20
2022-12-15T15:27:24.799Z,2.20
2022-12-15T15:29:52.438Z,2.20
2022-12-15T15:32:22.002Z,2.20
2022-12-15T15:34:49.181Z,2.20
2022-12-15T15:37:22.660Z,2.20
2022-12-15T15:39:51.614Z,2.20
2022-12-15T15:42:18.689Z,2.20
2022-12-15T15:44:45.507Z,2.20
2022-12-15T15:47:26.515Z,2.20
2022-12-15T15:49:55.015Z,2.10
2022-12-15T15:52:22.777Z,2.10
2022-12-15T15:54:50.089Z,2.10
2022-12-15T15:57:18.151Z,2.10
2022-12-15T15:59:46.662Z,2.00
2022-12-15T16:02:14.869Z,2.10
2022-12-15T16:04:43.029Z,2.00
2022-12-15T16:07:27.360Z,2.00
2022-12-15T16:09:54.570Z,2.00
2022-12-15T16:12:29.641Z,2.00
2022-12-15T16:14:56.494Z,2.00
2022-12-15T16:17:23.676Z,2.00
2022-12-15T16:19:50.594Z,2.00
2022-12-15T16:22:20.281Z,2.00
2022-12-15T16:24:47.579Z,1.90
2022-12-15T16:27:15.564Z,2.00
2022-12-15T16:29:42.753Z,2.00
2022-12-15T16:32:11.521Z,2.00
2022-12-15T16:34:38.446Z,2.00
2022-12-15T16:37:05.674Z,2.00
2022-12-15T16:39:34.902Z,2.00
2022-12-15T16:42:02.998Z,2.00
2022-12-15T16:44:30.319Z,2.00
2022-12-15T16:46:59.185Z,2.00
2022-12-15T16:49:27.694Z,2.00
2022-12-15T16:51:55.506Z,2.00
2022-12-15T16:54:26.351Z,2.00
2022-12-15T16:56:54.838Z,2.00
2022-12-15T16:59:33.207Z,2.00
2022-12-15T17:02:01.439Z,2.00
2022-12-15T17:04:28.385Z,2.00
2022-12-15T17:06:55.257Z,2.00
2022-12-15T17:09:25.525Z,2.00
2022-12-15T17:11:52.803Z,2.00
2022-12-15T17:14:19.585Z,2.00
2022-12-15T17:16:46.402Z,2.00
2022-12-15T17:19:19.114Z,2.00
2022-12-15T17:21:51.750Z,2.00
2022-12-15T17:24:20.349Z,2.00
2022-12-15T17:26:47.320Z,2.10
2022-12-15T17:29:21.403Z,2.00
2022-12-15T17:31:48.366Z,2.00
2022-12-15T17:34:32.853Z,2.00
2022-12-15T17:37:02.562Z,2.00
2022-12-15T17:39:32.724Z,2.00
2022-12-15T17:42:01.356Z,2.00
2022-12-15T17:44:36.309Z,2.00
2022-12-15T17:47:08.696Z,2.00
2022-12-15T17:49:38.061Z,2.00
2022-12-15T17:52:27.271Z,2.00
2022-12-15T17:54:55.064Z,2.00
2022-12-15T17:57:22.010Z,2.00
2022-12-15T17:59:48.912Z,2.00
2022-12-15T18:02:15.980Z,2.00
2022-12-15T18:04:44.004Z,2.00
2022-12-15T18:07:21.674Z,2.00
2022-12-15T18:09:52.924Z,2.00
2022-12-15T18:12:25.123Z,2.00
2022-12-15T18:14:53.231Z,2.00
2022-12-15T18:17:21.101Z,2.00
2022-12-15T18:19:48.421Z,2.00
2022-12-15T18:22:22.448Z,2.00
2022-12-15T18:24:52.599Z,2.00
2022-12-15T18:27:26.768Z,2.10
2022-12-15T18:29:54.360Z,2.10
2022-12-15T18:32:26.932Z,2.10
2022-12-15T18:34:55.071Z,2.10
2022-12-15T18:37:23.652Z,2.10
2022-12-15T18:39:50.952Z,2.10
2022-12-15T18:42:20.228Z,2.10
2022-12-15T18:44:50.212Z,2.10
2022-12-15T18:47:19.806Z,2.10
2022-12-15T18:49:47.072Z,2.20
2022-12-15T18:52:16.714Z,2.20
2022-12-15T18:54:44.044Z,2.20
2022-12-15T18:57:38.226Z,2.20
2022-12-15T19:00:18.748Z,2.20
2022-12-15T19:02:46.483Z,2.20
2022-12-15T19:05:34.731Z,2.30
2022-12-15T19:08:10.446Z,2.30
2022-12-15T19:10:51.006Z,2.30
2022-12-15T19:13:20.831Z,2.30
2022-12-15T19:15:47.690Z,2.30
2022-12-15T19:18:38.293Z,2.30
2022-12-15T19:21:40.422Z,2.30
2022-12-15T19:24:17.503Z,2.30
2022-12-15T19:26:44.413Z,2.30
2022-12-15T19:29:23.615Z,2.30
2022-12-15T19:31:51.371Z,2.30
2022-12-15T19:34:18.555Z,2.20
2022-12-15T19:36:46.851Z,2.20
2022-12-15T19:39:24.013Z,2.20
2022-12-15T19:41:51.373Z,2.20
2022-12-15T19:44:18.850Z,2.20
2022-12-15T19:46:46.413Z,2.20
2022-12-15T19:49:14.497Z,2.20
2022-12-15T19:51:41.837Z,2.20
2022-12-15T19:54:16.132Z,2.20
2022-12-15T19:56:43.142Z,2.20
2022-12-15T19:59:19.862Z,2.20
2022-12-15T20:01:47.080Z,2.20
2022-12-15T20:04:14.739Z,2.20
2022-12-15T20:06:44.022Z,2.20
2022-12-15T20:09:15.518Z,2.20
2022-12-15T20:11:42.670Z,2.20
2022-12-15T20:14:12.830Z,2.20
2022-12-15T20:16:39.997Z,2.20
2022-12-15T20:19:07.214Z,2.20
2022-12-15T20:21:37.477Z,2.20
2022-12-15T20:24:17.277Z,2.20
2022-12-15T20:26:45.454Z,2.20
2022-12-15T20:29:23.524Z,2.20
2022-12-15T20:31:51.294Z,2.20
2022-12-15T20:34:18.359Z,2.20
2022-12-15T20:36:47.379Z,2.20
2022-12-15T20:39:22.301Z,2.10
2022-12-15T20:41:49.109Z,2.10
2022-12-15T20:44:16.056Z,2.20
2022-12-15T20:46:43.296Z,2.10
2022-12-15T20:49:20.064Z,2.10
2022-12-15T20:51:48.405Z,2.10
2022-12-15T20:54:18.296Z,2.10
2022-12-15T20:56:45.359Z,2.10
2022-12-15T20:59:12.755Z,2.20
2022-12-15T21:01:40.227Z,2.10
2022-12-15T21:04:28.660Z,2.10
2022-12-15T21:06:56.622Z,2.10
2022-12-15T21:09:24.178Z,2.10
2022-12-15T21:11:55.034Z,2.10
2022-12-15T21:14:23.878Z,2.10
2022-12-15T21:16:50.787Z,2.10
2022-12-15T21:19:20.895Z,2.10
2022-12-15T21:21:52.210Z,2.10
2022-12-15T21:24:25.289Z,2.10
2022-12-15T21:26:52.653Z,2.10
2022-12-15T21:29:23.039Z,2.10
2022-12-15T21:31:50.056Z,2.10
2022-12-15T21:34:17.121Z,2.10
2022-12-15T21:36:47.191Z,2.10
2022-12-15T21:39:30.028Z,2.10
2022-12-15T21:42:11.864Z,2.10
2022-12-15T21:44:38.965Z,2.10
2022-12-15T21:47:24.877Z,2.10
2022-12-15T21:49:52.116Z,2.10
2022-12-15T21:52:21.140Z,2.10
2022-12-15T21:54:48.006Z,2.10
2022-12-15T21:57:14.774Z,2.00
2022-12-15T21:59:41.643Z,2.10
2022-12-15T22:02:41.175Z,2.00
2022-12-15T22:05:20.387Z,2.00
2022-12-15T22:07:48.683Z,2.00
2022-12-15T22:10:17.335Z,2.00
2022-12-15T22:12:48.627Z,2.00
2022-12-15T22:15:18.779Z,2.00
2022-12-15T22:17:46.056Z,2.10
2022-12-15T22:20:24.067Z,2.00
2022-12-15T22:22:51.329Z,2.00
2022-12-15T22:25:23.516Z,2.00
2022-12-15T22:27:50.885Z,2.00
2022-12-15T22:30:24.554Z,2.00
2022-12-15T22:32:51.419Z,2.00
2022-12-15T22:35:20.955Z,2.00
2022-12-15T22:37:49.575Z,2.00
2022-12-15T22:40:17.497Z,2.00
2022-12-15T22:42:49.191Z,2.00
2022-12-15T22:45:19.052Z,2.00
2022-12-15T22:47:47.796Z,2.00
2022-12-15T22:50:24.823Z,2.00
2022-12-15T22:52:52.775Z,2.00
2022-12-15T22:55:24.438Z,2.00
2022-12-15T22:58:06.397Z,2.00
2022-12-15T23:00:33.199Z,2.00
2022-12-15T23:03:00.331Z,2.00
2022-12-15T23:05:27.288Z,1.90
2022-12-15T23:07:54.567Z,1.90
2022-12-15T23:10:40.280Z,1.90
2022-12-15T23:13:07.365Z,1.90
2022-12-15T23:15:52.920Z,1.90
2022-12-15T23:18:21.679Z,1.90
2022-12-15T23:20:48.507Z,1.90
2022-12-15T23:23:15.455Z,1.90
2022-12-15T23:25:42.325Z,1.80
2022-12-15T23:28:09.167Z,1.80
2022-12-15T23:30:36.217Z,1.80
2022-12-15T23:33:03.117Z,1.90
2022-12-15T23:35:32.668Z,1.80
2022-12-15T23:37:59.443Z,1.80
2022-12-15T23:40:26.235Z,1.80
2022-12-15T23:42:53.729Z,1.80
2022-12-15T23:45:20.867Z,1.80
2022-12-15T23:47:47.792Z,1.80
2022-12-15T23:50:14.656Z,1.80
2022-12-15T23:52:41.541Z,1.80
2022-12-15T23:55:11.779Z,1.80
2022-12-15T23:57:39.383Z,1.70
